createdAt,value
2018-08-23T00:01:37.989Z,11.63
2018-08-23T00:04:10.074Z,12.82
2018-08-23T00:06:48.286Z,11.40
2018-08-23T00:09:18.978Z,10.40
2018-08-23T00:11:49.634Z,12.45
2018-08-23T00:14:20.043Z,11.47
2018-08-23T00:16:50.768Z,13.32
2018-08-23T00:19:21.629Z,13.72
2018-08-23T00:21:52.314Z,12.70
2018-08-23T00:24:24.026Z,13.20
2018-08-23T00:26:55.993Z,12.50
2018-08-23T00:29:29.588Z,15.83
2018-08-23T00:32:02.824Z,14.07
2018-08-23T00:34:34.990Z,14.98
2018-08-23T00:37:06.339Z,14.50
2018-08-23T00:39:37.003Z,14.80
2018-08-23T00:42:10.772Z,14.65
2018-08-23T00:44:56.286Z,13.90
2018-08-23T00:47:30.816Z,14.75
2018-08-23T00:50:01.539Z,13.43
2018-08-23T00:52:44.839Z,16.02
2018-08-23T00:55:20.974Z,16.35
2018-08-23T00:57:51.706Z,16.25
2018-08-23T01:00:24.578Z,16.42
2018-08-23T01:03:01.287Z,17.35
2018-08-23T01:05:35.002Z,15.25
2018-08-23T01:08:07.071Z,16.57
2018-08-23T01:10:39.602Z,17.10
2018-08-23T01:13:10.312Z,16.15
2018-08-23T01:15:43.735Z,15.63
2018-08-23T01:18:16.430Z,16.25
2018-08-23T01:20:48.210Z,14.18
2018-08-23T01:23:18.965Z,15.00
2018-08-23T01:25:50.258Z,14.87
2018-08-23T01:28:21.698Z,15.68
2018-08-23T01:30:52.394Z,15.72
2018-08-23T01:33:23.052Z,15.53
2018-08-23T01:35:53.754Z,15.93
2018-08-23T01:38:24.430Z,15.85
2018-08-23T01:40:59.365Z,15.70
2018-08-23T01:43:30.091Z,16.00
2018-08-23T01:46:00.819Z,16.95
2018-08-23T01:48:32.912Z,17.57
2018-08-23T01:51:03.628Z,15.43
2018-08-23T01:53:38.085Z,18.60
2018-08-23T01:56:08.807Z,19.67
2018-08-23T01:58:39.487Z,17.75
2018-08-23T02:01:15.126Z,19.70
2018-08-23T02:03:46.152Z,19.48
2018-08-23T02:06:17.200Z,19.25
2018-08-23T02:08:48.031Z,16.30
2018-08-23T02:11:18.743Z,18.55
2018-08-23T02:13:49.411Z,20.02
2018-08-23T02:16:20.111Z,18.40
2018-08-23T02:18:51.190Z,17.98
2018-08-23T02:21:21.840Z,20.02
2018-08-23T02:23:53.191Z,19.48
2018-08-23T02:26:23.850Z,19.15
2018-08-23T02:28:54.547Z,20.15
2018-08-23T02:31:25.218Z,18.48
2018-08-23T02:33:55.921Z,18.27
2018-08-23T02:36:26.597Z,17.87
2018-08-23T02:38:59.806Z,18.50
2018-08-23T02:41:30.875Z,18.35
2018-08-23T02:44:01.569Z,19.20
2018-08-23T02:46:32.588Z,19.35
2018-08-23T02:49:03.330Z,20.97
2018-08-23T02:51:50.078Z,20.20
2018-08-23T02:54:20.814Z,20.62
2018-08-23T02:56:58.538Z,19.00
2018-08-23T02:59:30.107Z,22.42
2018-08-23T03:02:00.795Z,20.55
2018-08-23T03:04:31.519Z,19.95
2018-08-23T03:07:03.356Z,22.32
2018-08-23T03:09:35.311Z,21.90
2018-08-23T03:12:11.439Z,21.05
2018-08-23T03:14:42.219Z,23.15
2018-08-23T03:17:14.141Z,21.02
2018-08-23T03:19:59.270Z,24.23
2018-08-23T03:22:30.964Z,23.18
2018-08-23T03:25:04.195Z,25.00
2018-08-23T03:27:35.023Z,22.58
2018-08-23T03:30:07.431Z,25.88
2018-08-23T03:32:38.122Z,25.60
2018-08-23T03:35:09.019Z,22.85
2018-08-23T03:37:39.713Z,22.22
2018-08-23T03:40:11.450Z,23.87
2018-08-23T03:42:42.151Z,23.60
2018-08-23T03:45:18.288Z,28.17
2018-08-23T03:47:50.290Z,23.38
2018-08-23T03:50:21.004Z,23.00
2018-08-23T03:52:55.622Z,21.65
2018-08-23T03:55:26.742Z,23.95
2018-08-23T03:58:01.410Z,25.35
2018-08-23T04:00:37.555Z,25.00
2018-08-23T04:03:14.041Z,26.20
2018-08-23T04:05:44.695Z,23.67
2018-08-23T04:08:21.795Z,24.72
2018-08-23T04:10:52.475Z,24.70
2018-08-23T04:13:23.151Z,23.18
2018-08-23T04:15:53.815Z,23.25
2018-08-23T04:18:24.500Z,23.02
2018-08-23T04:20:56.616Z,23.18
2018-08-23T04:23:27.309Z,25.00
2018-08-23T04:25:59.707Z,22.27
2018-08-23T04:28:30.394Z,24.18
2018-08-23T04:31:01.050Z,23.73
2018-08-23T04:33:31.739Z,24.98
2018-08-23T04:36:02.395Z,23.50
2018-08-23T04:38:33.362Z,25.72
2018-08-23T04:41:06.734Z,22.95
2018-08-23T04:43:37.411Z,23.57
2018-08-23T04:46:12.329Z,25.02
2018-08-23T04:48:42.975Z,24.12
2018-08-23T04:51:13.662Z,26.48
2018-08-23T04:53:44.678Z,24.43
2018-08-23T04:56:15.419Z,22.90
2018-08-23T04:58:46.267Z,23.10
2018-08-23T05:01:16.956Z,24.65
2018-08-23T05:03:47.718Z,25.85
2018-08-23T05:06:18.379Z,25.40
2018-08-23T05:08:49.307Z,26.25
2018-08-23T05:11:20.015Z,26.75
2018-08-23T05:13:50.746Z,25.65
2018-08-23T05:16:21.938Z,25.55
2018-08-23T05:18:52.596Z,24.92
2018-08-23T05:21:23.286Z,28.77
2018-08-23T05:23:58.209Z,28.95
2018-08-23T05:26:28.880Z,27.52
2018-08-23T05:29:02.880Z,28.62
2018-08-23T05:31:34.096Z,26.82
2018-08-23T05:34:07.019Z,28.30
2018-08-23T05:36:37.689Z,29.50
2018-08-23T05:39:09.406Z,29.20
2018-08-23T05:41:40.298Z,29.42
2018-08-23T05:44:20.193Z,31.97
2018-08-23T05:46:56.246Z,31.85
2018-08-23T05:49:27.466Z,32.45
2018-08-23T05:51:59.880Z,28.23
2018-08-23T05:54:30.567Z,31.10
2018-08-23T05:57:01.321Z,32.25
2018-08-23T05:59:32.003Z,31.57
2018-08-23T06:02:02.651Z,31.50
2018-08-23T06:04:40.506Z,31.55
2018-08-23T06:07:11.194Z,35.30
2018-08-23T06:09:42.618Z,35.35
2018-08-23T06:12:13.280Z,35.13
2018-08-23T06:14:43.967Z,33.65
2018-08-23T06:17:14.627Z,31.97
2018-08-23T06:19:45.347Z,31.23
2018-08-23T06:22:16.200Z,35.00
2018-08-23T06:24:46.915Z,36.42
2018-08-23T06:27:17.662Z,31.30
2018-08-23T06:29:48.519Z,36.35
2018-08-23T06:32:19.175Z,37.13
2018-08-23T06:34:51.908Z,35.92
2018-08-23T06:37:23.032Z,37.95
2018-08-23T06:39:53.719Z,35.88
2018-08-23T06:42:45.850Z,37.53
2018-08-23T06:45:16.585Z,37.98
2018-08-23T06:47:50.815Z,35.55
2018-08-23T06:50:26.018Z,34.67
2018-08-23T06:52:56.734Z,37.78
2018-08-23T06:55:32.685Z,39.65
2018-08-23T06:58:04.365Z,38.88
2018-08-23T07:00:35.068Z,35.00
2018-08-23T07:03:05.970Z,32.58
2018-08-23T07:05:36.683Z,31.93
2018-08-23T07:08:07.637Z,35.55
2018-08-23T07:10:38.301Z,34.03
2018-08-23T07:13:09.182Z,40.40
2018-08-23T07:15:43.230Z,41.08
2018-08-23T07:18:18.646Z,36.58
2018-08-23T07:20:49.363Z,36.35
2018-08-23T07:23:30.293Z,38.33
2018-08-23T07:26:00.987Z,34.35
2018-08-23T07:28:32.746Z,39.63
2018-08-23T07:31:03.446Z,39.53
2018-08-23T07:33:35.311Z,39.65
2018-08-23T07:36:18.311Z,40.58
2018-08-23T07:38:49.470Z,38.42
2018-08-23T07:41:20.166Z,38.95
2018-08-23T07:43:50.818Z,43.42
2018-08-23T07:46:21.494Z,41.25
2018-08-23T07:48:52.174Z,38.58
2018-08-23T07:51:25.559Z,41.98
2018-08-23T07:54:00.691Z,41.18
2018-08-23T07:56:31.407Z,40.90
2018-08-23T07:59:02.071Z,42.27
2018-08-23T08:01:32.839Z,37.35
2018-08-23T08:04:03.888Z,36.20
2018-08-23T08:06:34.540Z,37.48
2018-08-23T08:09:08.778Z,36.55
2018-08-23T08:11:49.036Z,35.77
2018-08-23T08:14:25.220Z,38.67
2018-08-23T08:17:04.835Z,37.80
2018-08-23T08:19:39.442Z,40.83
2018-08-23T08:22:10.111Z,38.60
2018-08-23T08:24:40.685Z,31.33
2018-08-23T08:27:11.250Z,34.70
2018-08-23T08:29:42.096Z,40.90
2018-08-23T08:32:12.486Z,31.17
2018-08-23T08:34:44.208Z,36.47
2018-08-23T08:37:14.574Z,31.47
2018-08-23T08:39:44.976Z,35.23
2018-08-23T08:42:15.942Z,27.10
2018-08-23T08:44:46.347Z,27.00
2018-08-23T08:47:16.726Z,20.53
2018-08-23T08:49:47.127Z,17.83
2018-08-23T08:52:17.507Z,18.80
2018-08-23T08:54:47.927Z,18.00
2018-08-23T08:57:18.713Z,18.33
2018-08-23T08:59:49.259Z,19.40
2018-08-23T09:02:19.651Z,21.67
2018-08-23T09:04:50.084Z,20.60
2018-08-23T09:07:23.477Z,19.17
2018-08-23T09:09:54.028Z,21.40
2018-08-23T09:12:24.602Z,19.60
2018-08-23T09:14:55.002Z,16.57
2018-08-23T09:17:38.269Z,21.77
2018-08-23T09:20:12.517Z,20.27
2018-08-23T09:22:50.803Z,15.83
2018-08-23T09:25:25.797Z,16.57
2018-08-23T09:27:56.230Z,15.03
2018-08-23T09:30:27.722Z,13.07
2018-08-23T09:33:02.346Z,10.93
2018-08-23T09:35:33.450Z,10.07
2018-08-23T09:38:13.636Z,9.37
2018-08-23T09:40:43.994Z,9.10
2018-08-23T09:43:14.426Z,7.50
2018-08-23T09:45:45.318Z,8.03
2018-08-23T09:48:15.818Z,7.60
2018-08-23T09:50:46.322Z,7.27
2018-08-23T09:53:22.097Z,9.27
2018-08-23T09:55:54.314Z,8.63
2018-08-23T09:58:30.254Z,8.50
2018-08-23T10:01:06.039Z,7.43
2018-08-23T10:03:41.682Z,8.47
2018-08-23T10:06:27.338Z,6.27
2018-08-23T10:09:14.468Z,7.03
2018-08-23T10:11:50.518Z,6.77
2018-08-23T10:14:26.590Z,5.70
2018-08-23T10:17:02.439Z,5.27
2018-08-23T10:19:38.277Z,5.37
2018-08-23T10:22:14.062Z,4.90
2018-08-23T10:24:44.442Z,4.50
2018-08-23T10:27:14.802Z,4.97
2018-08-23T10:29:45.191Z,4.97
2018-08-23T10:32:15.620Z,4.13
2018-08-23T10:34:46.122Z,4.30
2018-08-23T10:37:16.516Z,4.13
2018-08-23T10:39:47.047Z,4.90
2018-08-23T10:42:17.677Z,4.20
2018-08-23T10:44:48.033Z,4.17
2018-08-23T10:47:23.883Z,4.60
2018-08-23T10:49:54.734Z,3.83
2018-08-23T10:52:25.171Z,4.10
2018-08-23T10:54:55.522Z,3.93
2018-08-23T10:57:25.894Z,3.97
2018-08-23T10:59:56.286Z,4.10
2018-08-23T11:02:26.664Z,3.20
2018-08-23T11:04:57.054Z,3.33
2018-08-23T11:07:33.815Z,3.87
2018-08-23T11:10:09.606Z,3.30
2018-08-23T11:12:45.322Z,3.07
2018-08-23T11:15:21.187Z,2.93
2018-08-23T11:17:57.003Z,2.87
2018-08-23T11:20:29.527Z,2.80
2018-08-23T11:22:59.920Z,2.33
2018-08-23T11:25:30.513Z,2.30
2018-08-23T11:28:05.096Z,2.60
2018-08-23T11:30:35.671Z,2.70
2018-08-23T11:33:09.823Z,2.23
2018-08-23T11:35:40.210Z,2.70
2018-08-23T11:38:10.606Z,3.20
2018-08-23T11:40:40.991Z,3.40
2018-08-23T11:43:11.734Z,3.67
2018-08-23T11:45:42.158Z,3.17
2018-08-23T11:48:12.501Z,3.33
2018-08-23T11:50:42.880Z,3.20
2018-08-23T11:53:13.316Z,2.93
2018-08-23T11:55:43.987Z,3.10
2018-08-23T11:58:14.358Z,3.07
2018-08-23T12:00:44.743Z,3.10
2018-08-23T12:03:15.130Z,3.10
2018-08-23T12:05:45.502Z,2.40
2018-08-23T12:08:15.937Z,2.70
2018-08-23T12:10:46.317Z,3.30
2018-08-23T12:13:16.894Z,2.60
2018-08-23T12:15:47.238Z,2.97
2018-08-23T12:18:17.646Z,2.37
2018-08-23T12:20:48.001Z,2.60
2018-08-23T12:23:18.396Z,2.90
2018-08-23T12:25:48.785Z,2.30
2018-08-23T12:28:24.847Z,2.30
2018-08-23T12:30:55.215Z,2.20
2018-08-23T12:33:25.591Z,1.93
2018-08-23T12:35:55.971Z,2.10
2018-08-23T12:38:31.751Z,2.00
2018-08-23T12:41:07.545Z,2.10
2018-08-23T12:43:46.462Z,2.30
2018-08-23T12:46:17.546Z,2.17
2018-08-23T12:48:48.442Z,2.13
2018-08-23T12:51:18.790Z,2.13
2018-08-23T12:53:49.159Z,2.37
2018-08-23T12:56:19.722Z,2.30
2018-08-23T12:58:50.514Z,2.17
2018-08-23T13:01:20.918Z,2.20
2018-08-23T13:03:51.523Z,2.20
2018-08-23T13:06:22.075Z,2.60
2018-08-23T13:08:52.778Z,2.53
2018-08-23T13:11:23.150Z,2.40
2018-08-23T13:13:53.494Z,2.83
2018-08-23T13:16:23.870Z,2.63
2018-08-23T13:18:54.239Z,2.40
2018-08-23T13:21:24.623Z,2.27
2018-08-23T13:23:55.007Z,2.77
2018-08-23T13:26:29.611Z,2.80
2018-08-23T13:28:59.954Z,2.80
2018-08-23T13:31:30.343Z,2.33
2018-08-23T13:34:01.096Z,2.47
2018-08-23T13:36:31.507Z,2.60
2018-08-23T13:39:02.083Z,2.50
2018-08-23T13:41:32.456Z,2.77
2018-08-23T13:44:02.891Z,2.70
2018-08-23T13:46:33.612Z,2.87
2018-08-23T13:49:04.002Z,2.70
2018-08-23T13:51:34.366Z,2.60
2018-08-23T13:54:04.724Z,2.73
2018-08-23T13:56:35.095Z,3.00
2018-08-23T13:59:05.918Z,2.77
2018-08-23T14:01:36.382Z,2.73
2018-08-23T14:04:07.090Z,3.13
2018-08-23T14:06:37.459Z,3.33
2018-08-23T14:09:07.834Z,3.40
2018-08-23T14:11:38.942Z,3.60
2018-08-23T14:14:09.330Z,3.20
2018-08-23T14:16:39.710Z,3.20
2018-08-23T14:19:10.125Z,3.53
2018-08-23T14:21:40.666Z,3.53
2018-08-23T14:24:11.051Z,3.90
2018-08-23T14:26:41.415Z,3.87
2018-08-23T14:29:11.807Z,3.97
2018-08-23T14:31:42.155Z,3.90
2018-08-23T14:34:12.550Z,4.53
2018-08-23T14:36:42.935Z,3.70
2018-08-23T14:39:13.302Z,3.97
2018-08-23T14:41:43.660Z,4.07
2018-08-23T14:44:14.080Z,3.90
2018-08-23T14:46:50.075Z,4.23
2018-08-23T14:49:25.951Z,5.13
2018-08-23T14:51:56.330Z,4.90
2018-08-23T14:54:32.207Z,5.07
2018-08-23T14:57:08.031Z,5.40
2018-08-23T14:59:38.450Z,4.97
2018-08-23T15:02:09.089Z,5.10
2018-08-23T15:04:39.883Z,5.23
2018-08-23T15:07:10.275Z,5.00
2018-08-23T15:09:40.871Z,5.23
2018-08-23T15:12:11.402Z,4.93
2018-08-23T15:14:41.779Z,4.37
2018-08-23T15:17:12.158Z,5.60
2018-08-23T15:19:42.530Z,5.20
2018-08-23T15:22:13.110Z,5.43
2018-08-23T15:24:43.450Z,5.83
2018-08-23T15:27:13.886Z,6.07
2018-08-23T15:29:44.407Z,5.83
2018-08-23T15:32:14.994Z,5.70
2018-08-23T15:34:45.370Z,6.03
2018-08-23T15:37:15.742Z,5.70
2018-08-23T15:39:46.107Z,5.40
2018-08-23T15:42:16.529Z,6.27
2018-08-23T15:44:46.937Z,6.10
2018-08-23T15:47:17.359Z,6.00
2018-08-23T15:49:47.774Z,5.80
2018-08-23T15:52:18.138Z,5.93
2018-08-23T15:54:48.568Z,6.13
2018-08-23T15:57:19.095Z,6.77
2018-08-23T15:59:49.510Z,6.40
2018-08-23T16:02:19.864Z,6.93
2018-08-23T16:04:50.235Z,5.90
2018-08-23T16:07:20.606Z,6.47
2018-08-23T16:09:51.403Z,5.53
2018-08-23T16:15:22.871Z,5.90
2018-08-23T16:17:58.459Z,5.87
2018-08-23T16:20:34.287Z,5.53
2018-08-23T16:23:05.121Z,6.47
2018-08-23T16:25:43.215Z,5.73
2018-08-23T16:28:13.566Z,6.70
2018-08-23T16:30:44.596Z,6.33
2018-08-23T16:33:14.954Z,7.13
2018-08-23T16:35:45.362Z,7.73
2018-08-23T16:38:15.715Z,6.00
2018-08-23T16:40:46.132Z,7.17
2018-08-23T16:43:16.535Z,6.27
2018-08-23T16:45:47.098Z,6.93
2018-08-23T16:48:17.496Z,5.67
2018-08-23T16:50:47.839Z,6.03
2018-08-23T16:53:18.241Z,5.90
2018-08-23T16:55:48.767Z,6.37
2018-08-23T16:58:20.359Z,9.40
2018-08-23T17:00:50.710Z,12.63
2018-08-23T17:03:21.122Z,5.73
2018-08-23T17:05:51.538Z,14.50
2018-08-23T17:08:21.933Z,8.63
2018-08-23T17:10:52.446Z,6.80
2018-08-23T17:13:28.103Z,5.93
2018-08-23T17:16:03.999Z,5.70
2018-08-23T17:18:34.857Z,5.87
2018-08-23T17:21:05.358Z,5.50
2018-08-23T17:23:35.770Z,5.87
2018-08-23T17:26:06.131Z,6.80
2018-08-23T17:28:36.554Z,7.67
2018-08-23T17:31:06.978Z,6.63
2018-08-23T17:33:37.407Z,6.60
2018-08-23T17:36:07.843Z,7.23
2018-08-23T17:38:38.234Z,6.80
2018-08-23T17:41:08.657Z,6.70
2018-08-23T17:43:39.020Z,7.27
2018-08-23T17:46:09.435Z,7.30
2018-08-23T17:48:39.806Z,7.03
2018-08-23T17:51:10.202Z,7.27
2018-08-23T17:53:40.778Z,6.20
2018-08-23T17:56:11.165Z,5.60
2018-08-23T17:58:41.607Z,6.30
2018-08-23T18:01:12.019Z,6.13
2018-08-23T18:03:43.011Z,6.53
2018-08-23T18:06:13.601Z,5.70
2018-08-23T18:08:44.128Z,5.27
2018-08-23T18:11:14.489Z,5.10
2018-08-23T18:13:44.913Z,5.00
2018-08-23T18:16:20.615Z,4.97
2018-08-23T18:18:51.020Z,5.27
2018-08-23T18:21:21.378Z,5.13
2018-08-23T18:23:51.854Z,5.03
2018-08-23T18:26:22.427Z,4.73
2018-08-23T18:28:52.835Z,4.90
2018-08-23T18:31:23.208Z,4.43
2018-08-23T18:33:53.591Z,4.77
2018-08-23T18:36:23.975Z,4.83
2018-08-23T18:38:56.171Z,4.27
2018-08-23T18:41:31.053Z,4.50
2018-08-23T18:44:06.506Z,4.50
2018-08-23T18:46:42.813Z,4.50
2018-08-23T18:49:16.353Z,4.90
2018-08-23T18:51:51.568Z,3.77
2018-08-23T18:54:24.678Z,4.00
2018-08-23T18:56:58.793Z,4.30
2018-08-23T18:59:34.685Z,3.90
2018-08-23T19:02:07.876Z,3.97
2018-08-23T19:04:40.628Z,4.33
2018-08-23T19:07:25.701Z,4.00
2018-08-23T19:10:05.494Z,3.53
2018-08-23T19:12:44.503Z,4.20
2018-08-23T19:15:21.942Z,3.97
2018-08-23T19:17:53.656Z,3.70
2018-08-23T19:20:29.370Z,3.40
2018-08-23T19:23:01.785Z,4.07
2018-08-23T19:25:37.101Z,3.40
2018-08-23T19:28:09.030Z,3.47
2018-08-23T19:30:40.748Z,3.70
2018-08-23T19:33:13.251Z,3.73
2018-08-23T19:35:46.035Z,3.57
2018-08-23T19:38:17.639Z,3.40
2018-08-23T19:40:47.995Z,3.70
2018-08-23T19:43:18.383Z,3.63
2018-08-23T19:45:54.162Z,3.50
2018-08-23T19:48:24.526Z,3.30
2018-08-23T19:50:54.926Z,3.43
2018-08-23T19:53:25.295Z,3.50
2018-08-23T19:55:55.675Z,3.43
2018-08-23T19:58:26.091Z,3.57
2018-08-23T20:00:56.507Z,3.57
2018-08-23T20:03:33.615Z,3.77
2018-08-23T20:06:04.344Z,3.60
2018-08-23T20:08:34.703Z,3.97
2018-08-23T20:11:05.131Z,3.63
2018-08-23T20:16:12.326Z,3.60
2018-08-23T20:18:42.666Z,3.23
2018-08-23T20:21:13.059Z,3.57
2018-08-23T20:23:43.587Z,3.17
2018-08-23T20:26:14.207Z,4.07
2018-08-23T20:28:44.563Z,3.77
2018-08-23T20:31:14.994Z,3.77
2018-08-23T20:33:45.391Z,3.40
2018-08-23T20:36:15.754Z,3.40
2018-08-23T20:38:46.170Z,3.33
2018-08-23T20:41:16.574Z,3.87
2018-08-23T20:43:47.110Z,3.13
2018-08-23T20:46:17.512Z,3.30
2018-08-23T20:48:48.111Z,3.13
2018-08-23T20:51:18.519Z,3.30
2018-08-23T20:53:48.901Z,3.40
2018-08-23T20:56:19.307Z,3.20
2018-08-23T20:58:49.659Z,3.63
2018-08-23T21:01:20.067Z,3.20
2018-08-23T21:03:50.504Z,2.73
2018-08-23T21:06:21.018Z,3.10
2018-08-23T21:08:51.358Z,3.37
2018-08-23T21:11:22.178Z,3.23
2018-08-23T21:13:53.581Z,3.03
2018-08-23T21:16:24.243Z,2.77
2018-08-23T21:18:54.629Z,2.57
2018-08-23T21:21:25.010Z,2.73
2018-08-23T21:23:55.362Z,2.87
2018-08-23T21:26:25.764Z,2.57
2018-08-23T21:28:56.231Z,2.40
2018-08-23T21:31:26.610Z,2.67
2018-08-23T21:33:56.986Z,2.67
2018-08-23T21:36:27.470Z,2.60
2018-08-23T21:38:58.702Z,2.50
2018-08-23T21:41:29.046Z,2.63
2018-08-23T21:43:59.444Z,2.47
2018-08-23T21:46:29.794Z,2.60
2018-08-23T21:49:00.174Z,2.30
2018-08-23T21:51:30.531Z,2.50
2018-08-23T21:54:00.923Z,2.50
2018-08-23T21:56:31.311Z,2.70
2018-08-23T21:59:01.872Z,2.70
2018-08-23T22:01:32.414Z,2.67
2018-08-23T22:04:02.946Z,2.60
2018-08-23T22:06:33.339Z,2.73
2018-08-23T22:09:06.128Z,2.87
2018-08-23T22:11:36.550Z,2.80
2018-08-23T22:14:07.334Z,2.70
2018-08-23T22:16:38.083Z,2.40
2018-08-23T22:19:08.426Z,2.90
2018-08-23T22:21:38.830Z,2.97
2018-08-23T22:24:09.199Z,2.57
2018-08-23T22:26:39.671Z,3.00
2018-08-23T22:29:10.118Z,3.17
2018-08-23T22:31:40.498Z,3.00
2018-08-23T22:34:10.847Z,3.40
2018-08-23T22:36:41.230Z,3.63
2018-08-23T22:39:11.588Z,3.33
2018-08-23T22:41:42.003Z,3.50
2018-08-23T22:44:15.392Z,3.70
2018-08-23T22:46:46.756Z,3.70
2018-08-23T22:49:17.122Z,3.90
2018-08-23T22:51:47.881Z,3.70
2018-08-23T22:54:18.238Z,3.07
2018-08-23T22:56:48.631Z,4.03
2018-08-23T22:59:19.027Z,3.60
2018-08-23T23:01:49.462Z,3.87
2018-08-23T23:04:25.271Z,4.23
2018-08-23T23:06:56.353Z,4.07
2018-08-23T23:09:26.743Z,3.93
2018-08-23T23:11:57.154Z,3.77
2018-08-23T23:14:27.548Z,4.10
2018-08-23T23:16:57.932Z,4.00
2018-08-23T23:19:28.323Z,3.40
2018-08-23T23:21:58.699Z,3.87
2018-08-23T23:24:34.547Z,3.80
2018-08-23T23:27:04.907Z,3.43
2018-08-23T23:29:35.306Z,3.40
2018-08-23T23:32:05.907Z,3.43
2018-08-23T23:34:36.284Z,3.40
2018-08-23T23:37:06.647Z,3.73
2018-08-23T23:39:37.035Z,3.50
2018-08-23T23:42:07.516Z,3.77
2018-08-23T23:44:38.036Z,3.60
2018-08-23T23:47:08.563Z,3.53
2018-08-23T23:49:39.215Z,3.10
2018-08-23T23:52:10.074Z,3.75
2018-08-23T23:54:40.454Z,3.40
2018-08-23T23:57:11.143Z,3.30
2018-08-23T23:59:41.779Z,3.25
